Time;durP1;ratioP1;P1;durP2;ratioP2;P2;SDS_P1;SDS_P2;PMS_P1;PMS_P2;Temp;Humidity;BMP_temperature;BMP_pressure;BME280_temperature;BME280_humidity;BME280_pressure;Samples;Min_cycle;Max_cycle;Signal;HPM_P1;HPM_P2
2022/07/20 00:00:52;;;;;;;;;22.00;20.25;;;;;27.64;42.54;100741.66;5041552;28;46712;-83
2022/07/20 00:03:17;;;;;;;;;21.75;21.25;;;;;27.68;42.98;100760.94;5052823;28;45723;-83
2022/07/20 00:05:43;;;;;;;;;20.00;18.50;;;;;27.62;43.19;100773.38;5030937;28;46228;-83
2022/07/20 00:08:10;;;;;;;;;21.50;20.25;;;;;27.54;43.44;100769.06;5033392;28;45946;-83
2022/07/20 00:13:37;;;;;;;;;20.25;20.00;;;;;27.41;44.13;100771.00;4961874;28;46000;-83
2022/07/20 00:16:03;;;;;;;;;21.25;18.00;;;;;27.39;43.94;100767.66;4966146;28;45762;-83
2022/07/20 00:18:28;;;;;;;;;24.00;21.50;;;;;27.31;43.91;100798.38;4958203;28;45942;-83
2022/07/20 00:20:53;;;;;;;;;22.75;20.25;;;;;27.30;44.11;100847.84;4952442;28;48033;-82
2022/07/20 00:23:19;;;;;;;;;25.50;23.25;;;;;27.19;45.02;100861.13;4964673;28;45849;-82
2022/07/20 00:25:44;;;;;;;;;26.25;22.25;;;;;27.15;45.12;100899.19;4958869;28;46162;-83
2022/07/20 00:28:09;;;;;;;;;22.25;19.75;;;;;27.12;45.09;100925.72;4962118;28;45806;-81
2022/07/20 00:30:35;;;;;;;;;21.75;20.00;;;;;27.07;45.32;100923.66;4962499;28;46544;-82
2022/07/20 00:33:00;;;;;;;;;23.25;22.25;;;;;27.04;45.43;100945.59;4968244;28;46275;-83
2022/07/20 00:35:26;;;;;;;;;18.25;16.25;;;;;26.95;45.07;100941.44;4951974;28;46157;-83
2022/07/20 00:37:51;;;;;;;;;22.25;20.50;;;;;26.90;46.06;100933.19;4961449;28;45755;-82
2022/07/20 00:40:19;;;;;;;;;21.50;18.75;;;;;26.89;45.71;100918.06;4963103;28;45771;-82
2022/07/20 00:42:45;;;;;;;;;21.00;20.50;;;;;26.84;46.41;100893.63;4960937;28;46086;-84
2022/07/20 00:45:11;;;;;;;;;20.25;18.25;;;;;26.74;47.89;100853.72;4958815;28;47318;-82
2022/07/20 00:47:36;;;;;;;;;22.00;20.75;;;;;26.59;49.44;100814.66;4993640;28;45887;-81
2022/07/20 00:50:02;;;;;;;;;23.75;21.25;;;;;26.47;48.72;100814.47;5040633;28;45702;-83
2022/07/20 00:52:28;;;;;;;;;21.50;21.25;;;;;26.34;49.79;100810.97;5043192;28;46531;-80
2022/07/20 00:54:54;;;;;;;;;22.75;20.25;;;;;26.19;49.55;100805.72;5050069;28;46030;-82
2022/07/20 00:57:20;;;;;;;;;7.00;3.00;;;;;26.14;49.67;100808.22;5052017;28;45791;-81
2022/07/20 00:59:46;;;;;;;;;24.50;22.75;;;;;26.01;51.46;100811.72;5057415;28;46893;-81
2022/07/20 01:02:12;;;;;;;;;25.25;22.00;;;;;25.84;52.80;100779.06;5046079;28;45714;-82
2022/07/20 01:04:38;;;;;;;;;26.00;20.75;;;;;25.85;52.36;100785.25;5046899;28;46148;-83
2022/07/20 01:07:04;;;;;;;;;23.75;22.25;;;;;25.78;52.08;100779.88;5044494;28;45777;-83
2022/07/20 01:09:29;;;;;;;;;23.75;21.75;;;;;25.77;52.85;100769.34;5032561;28;47510;-83
2022/07/20 01:11:55;;;;;;;;;28.25;26.00;;;;;25.80;52.21;100766.25;5050213;28;45943;-81
2022/07/20 01:14:20;;;;;;;;;22.75;21.75;;;;;25.73;52.88;100762.72;5051720;28;45781;-82
2022/07/20 01:16:46;;;;;;;;;29.00;26.00;;;;;25.79;52.07;100768.13;5056751;28;45958;-82
2022/07/20 01:19:11;;;;;;;;;28.75;26.00;;;;;25.82;53.07;100762.31;5054014;28;45576;-81
2022/07/20 01:21:40;;;;;;;;;35.50;30.25;;;;;25.81;52.86;100760.66;5058084;28;46075;-81
2022/07/20 01:24:09;;;;;;;;;39.75;33.50;;;;;25.84;53.98;100762.13;5058039;28;45846;-81
2022/07/20 01:26:36;;;;;;;;;34.00;31.00;;;;;25.91;53.70;100792.50;5048396;28;46528;-82
2022/07/20 01:29:02;;;;;;;;;44.50;36.25;;;;;25.88;53.92;100777.63;5055234;28;46533;-81
2022/07/20 01:31:28;;;;;;;;;37.50;32.75;;;;;25.93;54.23;100774.31;5048179;28;47100;-81
2022/07/20 01:33:53;;;;;;;;;45.25;37.75;;;;;25.87;54.71;100750.97;5049819;28;45621;-81
2022/07/20 01:36:19;;;;;;;;;39.75;35.25;;;;;25.96;55.10;100756.97;5046845;28;45621;-81
2022/07/20 01:38:44;;;;;;;;;48.50;38.75;;;;;25.96;55.24;100751.63;5036979;28;48530;-81
2022/07/20 01:41:09;;;;;;;;;45.75;38.25;;;;;25.91;55.23;100728.88;5057378;28;45639;-81
2022/07/20 01:43:35;;;;;;;;;46.50;38.25;;;;;25.92;56.03;100749.31;5051797;28;45987;-81
2022/07/20 01:46:00;;;;;;;;;49.25;40.75;;;;;25.95;55.95;100769.59;5057332;28;45525;-82
2022/07/20 01:48:25;;;;;;;;;46.75;38.50;;;;;25.91;55.51;100779.09;5026463;28;47487;-81
2022/07/20 01:50:51;;;;;;;;;53.00;41.50;;;;;25.91;55.63;100785.25;5053080;28;45774;-81
2022/07/20 01:53:16;;;;;;;;;49.25;40.50;;;;;25.87;55.61;100784.00;5040611;28;45762;-81
2022/07/20 01:55:42;;;;;;;;;49.75;41.25;;;;;25.85;56.08;100779.91;5050974;28;45511;-82
2022/07/20 01:58:07;;;;;;;;;48.00;40.50;;;;;25.86;56.49;100793.09;5045034;28;46543;-82
2022/07/20 02:00:33;;;;;;;;;51.75;42.50;;;;;25.95;55.59;100827.81;5042778;28;46308;-81
2022/07/20 02:02:58;;;;;;;;;52.75;41.25;;;;;25.94;55.21;100855.72;5045293;28;45863;-82
2022/07/20 02:05:24;;;;;;;;;49.50;41.75;;;;;25.86;56.03;100879.00;5043893;28;45554;-81
2022/07/20 02:07:49;;;;;;;;;53.25;42.50;;;;;25.84;55.52;100889.16;5047175;28;45931;-81
2022/07/20 02:10:15;;;;;;;;;51.50;42.25;;;;;25.82;55.89;100871.56;5044922;28;46294;-82
2022/07/20 02:12:40;;;;;;;;;51.25;41.25;;;;;25.82;56.54;100837.50;5049760;28;45950;-82
2022/07/20 02:15:08;;;;;;;;;50.00;41.00;;;;;25.85;56.15;100836.28;5044968;28;45685;-82
2022/07/20 02:17:34;;;;;;;;;49.75;40.00;;;;;25.79;56.39;100847.81;5051002;28;47812;-82
2022/07/20 02:19:59;;;;;;;;;49.50;41.00;;;;;25.77;56.47;100850.72;5035054;28;47048;-82
2022/07/20 02:22:25;;;;;;;;;53.50;42.25;;;;;25.82;55.93;100842.88;5045070;28;45755;-82
2022/07/20 02:24:51;;;;;;;;;50.25;41.50;;;;;25.70;56.69;100836.44;5053431;28;45743;-81
2022/07/20 02:27:16;;;;;;;;;48.00;39.50;;;;;25.71;56.40;100877.53;5049654;28;45695;-81
2022/07/20 02:29:42;;;;;;;;;55.00;44.50;;;;;25.65;56.52;100881.00;5054122;28;45721;-81
2022/07/20 02:32:07;;;;;;;;;55.25;44.50;;;;;25.60;56.85;100880.78;5044885;28;45792;-81
2022/07/20 02:34:33;;;;;;;;;57.25;47.00;;;;;25.52;57.27;100903.22;5048128;28;46200;-81
2022/07/20 02:36:58;;;;;;;;;54.75;45.00;;;;;25.53;56.95;100896.84;5051533;28;45868;-81
2022/07/20 02:39:24;;;;;;;;;53.75;43.00;;;;;25.42;57.09;100903.59;5050395;28;46674;-82
2022/07/20 02:41:50;;;;;;;;;58.25;47.50;;;;;25.39;56.74;100900.47;5051379;28;45884;-82
2022/07/20 02:44:15;;;;;;;;;55.00;44.25;;;;;25.29;57.12;100891.97;5027337;28;45622;-83
2022/07/20 02:46:41;;;;;;;;;56.50;45.50;;;;;25.30;57.36;100915.09;5037774;28;45782;-82
2022/07/20 02:49:07;;;;;;;;;54.25;44.50;;;;;25.25;57.16;100925.56;5043312;28;45919;-82
2022/07/20 02:51:32;;;;;;;;;57.75;46.50;;;;;25.15;57.35;100914.38;5041507;28;45734;-83
2022/07/20 02:53:58;;;;;;;;;54.25;45.00;;;;;25.05;57.28;100912.00;5032517;28;45815;-82
2022/07/20 02:56:24;;;;;;;;;54.25;45.00;;;;;25.07;57.55;100940.31;5044715;28;46373;-83
2022/07/20 02:58:49;;;;;;;;;57.00;45.50;;;;;24.99;57.66;100945.78;5047568;28;45702;-83
2022/07/20 03:01:15;;;;;;;;;58.75;44.75;;;;;24.99;57.78;100969.94;5036130;28;45685;-83
2022/07/20 03:03:40;;;;;;;;;60.75;47.50;;;;;24.94;57.40;100982.28;5039092;28;45637;-82
2022/07/20 03:06:06;;;;;;;;;59.00;46.50;;;;;24.93;57.27;100980.63;5046736;28;46281;-83
2022/07/20 03:08:31;;;;;;;;;57.50;45.75;;;;;24.94;57.78;100995.69;5032157;28;48347;-83
2022/07/20 03:10:56;;;;;;;;;53.25;42.50;;;;;24.97;57.99;101008.72;5052752;28;45680;-83
2022/07/20 03:13:22;;;;;;;;;58.00;46.00;;;;;24.98;57.87;101013.88;5053628;28;45602;-82
2022/07/20 03:15:47;;;;;;;;;56.75;45.25;;;;;24.97;58.09;101001.50;5033450;28;47189;-83
2022/07/20 03:18:12;;;;;;;;;54.50;44.50;;;;;25.06;58.38;101020.94;5033006;28;46967;-81
2022/07/20 03:20:38;;;;;;;;;54.00;44.75;;;;;25.08;58.65;101017.06;5053329;28;45869;-82
2022/07/20 03:23:04;;;;;;;;;54.25;43.25;;;;;25.03;58.06;100998.03;5039632;28;45462;-83
2022/07/20 03:25:29;;;;;;;;;55.75;44.50;;;;;25.03;58.40;100990.00;5029810;28;47709;-82
2022/07/20 03:27:56;;;;;;;;;53.00;42.75;;;;;25.11;58.62;100990.84;5041928;28;46275;-83
2022/07/20 03:30:22;;;;;;;;;53.25;43.25;;;;;25.09;58.39;100991.06;5038645;28;45977;-83
2022/07/20 03:32:48;;;;;;;;;52.25;43.75;;;;;25.15;58.68;100992.97;5051590;28;45852;-83
2022/07/20 03:35:14;;;;;;;;;54.00;43.00;;;;;25.19;58.39;100990.72;5043074;28;46534;-83
2022/07/20 03:37:39;;;;;;;;;53.50;44.00;;;;;25.20;58.27;100993.22;5045246;28;46073;-81
2022/07/20 03:40:06;;;;;;;;;54.00;42.25;;;;;25.24;58.07;100990.97;5044176;28;45538;-82
2022/07/20 03:42:32;;;;;;;;;53.00;42.00;;;;;25.27;58.02;100985.19;5052152;28;45911;-83
2022/07/20 03:44:59;;;;;;;;;49.75;41.75;;;;;25.25;57.86;100974.69;5030141;28;47500;-83
2022/07/20 03:47:24;;;;;;;;;49.75;38.75;;;;;25.35;57.50;100996.63;5041469;28;45792;-83
2022/07/20 03:49:50;;;;;;;;;48.75;39.50;;;;;25.33;57.83;100997.84;5043318;28;45605;-83
2022/07/20 03:52:16;;;;;;;;;48.50;38.75;;;;;25.34;57.94;101004.88;5044465;28;46003;-82
2022/07/20 03:54:42;;;;;;;;;51.75;40.50;;;;;25.36;57.51;101000.97;5055052;28;46539;-82
2022/07/20 03:57:07;;;;;;;;;46.00;38.00;;;;;25.39;57.54;101034.63;5041518;28;46405;-82
2022/07/20 03:59:33;;;;;;;;;47.50;38.50;;;;;25.42;57.31;101064.59;5043506;28;45743;-82
2022/07/20 04:01:59;;;;;;;;;47.25;37.00;;;;;25.40;57.81;101088.09;5041043;28;45599;-82
2022/07/20 04:04:24;;;;;;;;;37.25;32.00;;;;;25.36;56.50;101077.97;5048941;28;45810;-82
2022/07/20 04:06:49;;;;;;;;;34.25;30.75;;;;;25.39;55.82;101080.25;5036987;28;46450;-82
2022/07/20 04:09:43;;;;;;;;;31.75;29.25;;;;;25.24;55.39;101050.00;5029687;28;45984;-82
2022/07/20 04:12:01;;;;;;;;;30.50;28.50;;;;;25.17;55.35;101033.84;5043673;28;45843;-81
2022/07/20 04:14:26;;;;;;;;;28.00;27.50;;;;;25.02;55.30;101017.00;5051413;28;46802;-82
2022/07/20 04:16:51;;;;;;;;;32.75;29.00;;;;;25.03;55.28;101015.97;5046451;28;46284;-82
2022/07/20 04:19:17;;;;;;;;;32.75;31.00;;;;;25.01;55.55;101015.34;5052101;28;45714;-82
2022/07/20 04:21:42;;;;;;;;;33.25;30.25;;;;;24.97;55.51;101017.56;5052007;28;45553;-83
2022/07/20 04:24:08;;;;;;;;;34.25;30.00;;;;;25.02;55.33;100996.38;5044217;28;45820;-82
2022/07/20 04:26:33;;;;;;;;;29.00;28.00;;;;;25.06;55.22;100986.91;5050452;28;46362;-82
2022/07/20 04:28:58;;;;;;;;;24.25;24.25;;;;;25.00;54.17;100966.22;5031381;28;45835;-82
2022/07/20 04:31:24;;;;;;;;;21.00;20.25;;;;;24.95;53.88;100976.72;5052795;28;45522;-82
2022/07/20 04:33:49;;;;;;;;;20.00;17.75;;;;;24.84;53.57;100958.44;5066258;28;45683;-82
2022/07/20 04:36:14;;;;;;;;;19.25;18.50;;;;;24.91;53.01;100967.41;5038726;28;45654;-82
2022/07/20 04:38:40;;;;;;;;;22.50;21.00;;;;;24.90;53.07;100952.34;5052538;28;46142;-82
2022/07/20 04:41:05;;;;;;;;;23.00;21.75;;;;;24.94;53.17;100944.75;5062168;28;46216;-82
2022/07/20 04:43:30;;;;;;;;;19.00;17.00;;;;;24.89;52.61;100921.19;5044235;28;46643;-81
2022/07/20 04:45:56;;;;;;;;;23.75;21.75;;;;;24.99;53.31;100924.34;5037889;28;46364;-83
2022/07/20 04:48:21;;;;;;;;;21.25;20.25;;;;;24.94;53.12;100905.34;5037118;28;45672;-82
2022/07/20 04:50:46;;;;;;;;;22.00;21.00;;;;;24.99;53.33;100932.41;5042535;28;45738;-82
2022/07/20 04:53:12;;;;;;;;;24.25;23.25;;;;;25.03;53.09;100941.72;5022995;28;48182;-82
2022/07/20 04:55:37;;;;;;;;;20.75;20.00;;;;;25.04;52.34;100947.91;5045868;28;45697;-82
2022/07/20 04:58:03;;;;;;;;;21.00;19.25;;;;;25.01;52.68;100977.78;5013072;28;45992;-82
2022/07/20 05:00:28;;;;;;;;;21.50;21.00;;;;;25.04;52.88;101017.66;5028460;28;45649;-82
2022/07/20 05:02:54;;;;;;;;;18.25;16.50;;;;;24.95;53.06;101041.06;5041394;28;45751;-82
2022/07/20 05:05:19;;;;;;;;;24.50;20.50;;;;;24.94;52.98;101036.72;5028945;28;46229;-82
2022/07/20 05:07:44;;;;;;;;;19.25;18.25;;;;;24.86;52.90;101039.50;5025295;28;45752;-82
2022/07/20 05:10:10;;;;;;;;;24.75;22.50;;;;;24.91;53.37;101063.94;5015986;28;45612;-82
2022/07/20 05:12:35;;;;;;;;;23.25;21.75;;;;;24.87;53.54;101048.38;5021560;28;46362;-81
2022/07/20 05:15:01;;;;;;;;;21.75;19.75;;;;;24.86;53.84;101042.19;5024592;28;45809;-83
2022/07/20 05:17:26;;;;;;;;;22.75;19.25;;;;;24.76;53.81;101030.97;5025961;28;45781;-84
2022/07/20 05:19:51;;;;;;;;;22.25;21.50;;;;;24.73;53.84;101022.44;5024805;28;46026;-83
2022/07/20 05:22:17;;;;;;;;;21.00;19.75;;;;;24.76;53.67;101019.41;5036085;28;46458;-82
2022/07/20 05:24:42;;;;;;;;;21.75;19.00;;;;;24.74;54.54;100973.19;5033439;28;45803;-83
2022/07/20 05:27:08;;;;;;;;;23.00;22.25;;;;;24.76;54.39;100937.16;5031236;28;46079;-82
2022/07/20 05:29:33;;;;;;;;;20.75;20.50;;;;;24.83;53.70;100931.84;5030969;28;45623;-85
2022/07/20 05:32:02;;;;;;;;;21.25;19.75;;;;;24.83;53.84;100905.03;5020064;28;45916;-83
2022/07/20 05:34:27;;;;;;;;;23.50;20.50;;;;;24.85;53.55;100893.09;5027869;28;46115;-82
2022/07/20 05:36:52;;;;;;;;;20.75;19.25;;;;;24.77;53.69;100924.56;5034330;28;45806;-83
2022/07/20 05:39:18;;;;;;;;;22.50;22.50;;;;;24.81;53.68;100937.38;5036006;28;45844;-83
2022/07/20 05:41:43;;;;;;;;;21.00;20.25;;;;;24.84;54.13;100952.25;5026476;28;47266;-83
2022/07/20 05:44:09;;;;;;;;;19.25;19.00;;;;;24.87;53.71;100978.69;5018524;28;45758;-78
2022/07/20 05:46:34;;;;;;;;;23.00;21.25;;;;;24.89;53.83;100985.53;5020784;28;45698;-76
2022/07/20 05:48:59;;;;;;;;;22.25;18.75;;;;;24.80;53.42;100951.81;5026179;28;45721;-78
2022/07/20 05:51:25;;;;;;;;;18.75;18.00;;;;;24.92;54.01;100954.84;5030284;28;46482;-78
2022/07/20 05:53:50;;;;;;;;;20.50;19.00;;;;;24.93;53.29;100984.13;5027648;28;46996;-77
2022/07/20 05:56:15;;;;;;;;;22.50;20.25;;;;;24.97;53.27;100989.94;5032661;28;45772;-78
2022/07/20 05:58:41;;;;;;;;;23.25;19.75;;;;;24.97;53.39;101003.34;5039376;28;45844;-77
2022/07/20 06:01:06;;;;;;;;;16.50;15.00;;;;;24.98;53.30;100989.75;5042641;28;46223;-78
2022/07/20 06:03:31;;;;;;;;;20.50;19.50;;;;;25.01;53.39;100994.72;5050265;28;45886;-77
2022/07/20 06:05:57;;;;;;;;;21.50;19.50;;;;;25.04;53.20;100986.31;5040032;28;45933;-78
2022/07/20 06:08:22;;;;;;;;;20.00;19.75;;;;;25.01;53.24;100970.56;5041098;28;45786;-77
2022/07/20 06:10:48;;;;;;;;;21.50;20.00;;;;;25.07;53.32;100977.84;5041291;28;46950;-76
2022/07/20 06:13:13;;;;;;;;;21.00;20.50;;;;;25.04;53.28;100994.34;5031110;28;46547;-76
2022/07/20 06:15:39;;;;;;;;;22.75;22.00;;;;;25.06;53.49;101003.00;5048743;28;45502;-77
2022/07/20 06:18:06;;;;;;;;;17.25;16.25;;;;;25.08;53.38;100994.78;5041033;28;46032;-76
2022/07/20 06:20:32;;;;;;;;;22.00;21.00;;;;;25.10;53.40;100999.94;5044370;28;46400;-77
2022/07/20 06:22:58;;;;;;;;;21.00;19.75;;;;;25.08;53.50;101030.47;5034292;28;46046;-78
2022/07/20 06:25:24;;;;;;;;;26.50;22.00;;;;;25.06;53.50;101047.75;5033985;28;45863;-77
2022/07/20 06:27:50;;;;;;;;;27.50;26.25;;;;;25.02;53.88;101057.22;5053390;28;46040;-77
2022/07/20 06:30:19;;;;;;;;;21.50;19.50;;;;;25.00;54.25;101070.81;5053046;28;45743;-77
2022/07/20 06:32:44;;;;;;;;;21.50;20.50;;;;;25.04;54.53;101095.41;5052828;28;46388;-78
2022/07/20 06:35:10;;;;;;;;;25.00;21.75;;;;;25.02;54.50;101103.63;5049164;28;46264;-78
2022/07/20 06:37:37;;;;;;;;;21.25;20.25;;;;;24.95;54.76;101080.44;5052559;28;45591;-77
2022/07/20 06:40:03;;;;;;;;;18.50;17.75;;;;;25.00;55.03;101084.22;5052701;28;47817;-75
2022/07/20 06:42:29;;;;;;;;;21.50;20.50;;;;;24.99;55.24;101092.47;5047456;28;47185;-76
2022/07/20 06:44:54;;;;;;;;;18.75;18.50;;;;;24.96;55.47;101096.34;5046548;28;45700;-76
2022/07/20 06:47:20;;;;;;;;;31.50;29.25;;;;;24.97;55.36;101094.50;5054554;28;45663;-77
2022/07/20 06:49:45;;;;;;;;;20.25;17.50;;;;;24.96;55.19;101087.47;5035943;28;47204;-78
2022/07/20 06:52:11;;;;;;;;;21.75;18.75;;;;;24.92;55.14;101065.59;5044683;28;46265;-77
2022/07/20 06:54:36;;;;;;;;;19.50;18.75;;;;;24.94;55.17;101046.63;5028715;28;46150;-77
2022/07/20 06:57:01;;;;;;;;;22.25;18.25;;;;;24.90;55.01;101038.13;5049728;28;46388;-77
2022/07/20 06:59:27;;;;;;;;;18.00;17.00;;;;;24.90;54.99;101045.34;5015131;28;46831;-77
2022/07/20 07:01:52;;;;;;;;;20.25;19.25;;;;;24.87;54.87;101040.34;5008738;28;45721;-77
2022/07/20 07:04:18;;;;;;;;;20.25;18.75;;;;;24.82;54.12;101040.09;5021906;28;45813;-77
2022/07/20 07:06:43;;;;;;;;;24.00;22.25;;;;;24.84;54.35;101054.13;5026362;28;45477;-77
2022/07/20 07:09:09;;;;;;;;;22.00;19.75;;;;;24.80;54.75;101042.94;5022046;28;45922;-77
2022/07/20 07:11:35;;;;;;;;;19.75;19.50;;;;;24.82;54.92;101035.56;5001896;28;48097;-77
2022/07/20 07:14:01;;;;;;;;;21.25;20.25;;;;;24.79;55.09;101035.09;5001653;28;46003;-76
2022/07/20 07:16:26;;;;;;;;;22.75;19.75;;;;;24.74;55.04;101046.38;5012040;28;45635;-76
2022/07/20 07:18:52;;;;;;;;;20.50;19.75;;;;;24.74;55.18;101061.63;5025735;28;46882;-77
2022/07/20 07:21:17;;;;;;;;;18.50;17.00;;;;;24.71;55.32;101073.59;5032547;28;45657;-77
2022/07/20 07:23:45;;;;;;;;;22.00;18.75;;;;;24.66;55.09;101050.03;5012507;28;45944;-77
2022/07/20 07:26:11;;;;;;;;;22.50;20.00;;;;;24.68;55.31;101047.97;5009951;28;45943;-75
2022/07/20 07:28:37;;;;;;;;;21.25;21.25;;;;;24.66;55.64;101017.88;5017807;28;46997;-77
2022/07/20 07:31:02;;;;;;;;;21.50;20.25;;;;;24.67;55.10;101034.75;5014317;28;47347;-77
2022/07/20 07:33:27;;;;;;;;;24.25;21.00;;;;;24.65;55.36;101061.78;5030398;28;45649;-76
2022/07/20 07:35:53;;;;;;;;;20.25;19.25;;;;;24.62;55.80;101058.63;5014559;28;45730;-78
2022/07/20 07:38:19;;;;;;;;;23.50;22.00;;;;;24.62;56.12;101053.25;5017390;28;45926;-78
2022/07/20 07:40:44;;;;;;;;;22.50;19.75;;;;;24.61;55.64;101068.53;5013921;28;47307;-77
2022/07/20 07:43:10;;;;;;;;;23.00;21.75;;;;;24.63;55.80;101090.59;5031353;28;45671;-79
2022/07/20 07:45:35;;;;;;;;;23.00;20.75;;;;;24.64;55.75;101086.91;5031449;28;45682;-77
2022/07/20 07:48:01;;;;;;;;;22.75;21.50;;;;;24.71;55.30;101103.06;5019815;28;46458;-79
2022/07/20 07:50:29;;;;;;;;;22.25;21.75;;;;;24.72;55.45;101112.78;5030672;28;46499;-77
2022/07/20 07:52:54;;;;;;;;;21.75;19.75;;;;;24.68;55.46;101114.16;5027094;28;46068;-82
2022/07/20 07:55:21;;;;;;;;;19.25;18.75;;;;;24.71;56.01;101124.50;5028622;28;45766;-83
2022/07/20 07:57:46;;;;;;;;;23.50;22.25;;;;;24.68;55.87;101122.19;5028539;28;46400;-83
2022/07/20 08:00:12;;;;;;;;;20.00;20.00;;;;;24.65;55.65;101119.91;5049846;28;46176;-81
2022/07/20 08:02:38;;;;;;;;;23.25;20.50;;;;;24.62;55.81;101117.56;5049494;28;46046;-83
2022/07/20 08:05:03;;;;;;;;;21.50;19.75;;;;;24.59;55.79;101118.81;5015433;28;45643;-82
2022/07/20 08:07:33;;;;;;;;;23.00;21.00;;;;;24.49;55.79;101091.47;5042896;28;45738;-82
2022/07/20 08:09:59;;;;;;;;;20.50;19.50;;;;;24.54;56.23;101105.13;5026412;28;48292;-79
2022/07/20 08:12:24;;;;;;;;;25.25;22.50;;;;;24.60;56.09;101114.28;5047607;28;45735;-79
2022/07/20 08:14:49;;;;;;;;;22.00;20.75;;;;;24.54;55.66;101107.81;5048585;28;45668;-79
2022/07/20 08:17:15;;;;;;;;;24.75;23.00;;;;;24.62;55.82;101109.53;5048286;28;46399;-77
2022/07/20 08:19:40;;;;;;;;;20.00;18.25;;;;;24.62;56.06;101120.25;5047690;28;46595;-78
2022/07/20 08:22:06;;;;;;;;;18.75;18.25;;;;;24.59;55.72;101120.66;5028654;28;45811;-79
2022/07/20 08:24:31;;;;;;;;;24.00;21.50;;;;;24.61;56.06;101126.66;5045976;28;45653;-79
2022/07/20 08:26:56;;;;;;;;;19.75;18.00;;;;;24.57;56.12;101125.34;5047994;28;46598;-78
2022/07/20 08:29:22;;;;;;;;;21.50;19.50;;;;;24.59;55.86;101118.81;5051924;28;45719;-77
2022/07/20 08:31:47;;;;;;;;;19.25;18.50;;;;;24.56;55.49;101099.59;5050211;28;45695;-79
2022/07/20 08:34:12;;;;;;;;;23.00;20.25;;;;;24.64;55.72;101119.06;5042520;28;45732;-80
2022/07/20 08:36:38;;;;;;;;;24.00;22.75;;;;;24.63;55.98;101128.13;5050062;28;47020;-81
2022/07/20 08:39:05;;;;;;;;;20.75;18.75;;;;;24.60;55.71;101133.88;5036392;28;46203;-80
2022/07/20 08:41:32;;;;;;;;;22.50;21.00;;;;;24.52;55.78;101120.56;5053388;28;46085;-79
2022/07/20 08:43:57;;;;;;;;;21.75;19.25;;;;;24.48;55.69;101124.63;5058500;28;45550;-79
2022/07/20 08:46:24;;;;;;;;;21.00;18.25;;;;;24.45;54.98;101132.22;5045802;28;46714;-79
2022/07/20 08:48:51;;;;;;;;;18.25;17.00;;;;;24.38;55.09;101142.00;5035217;28;46186;-81
2022/07/20 08:51:16;;;;;;;;;20.25;19.00;;;;;24.28;54.97;101131.59;5060358;28;46029;-79
2022/07/20 08:53:42;;;;;;;;;17.00;15.50;;;;;24.22;55.24;101127.81;5046925;28;45867;-79
2022/07/20 08:56:07;;;;;;;;;21.25;19.50;;;;;24.22;55.29;101126.97;5036873;28;45743;-80
2022/07/20 08:58:33;;;;;;;;;20.50;19.75;;;;;24.22;55.21;101114.41;5026977;28;48054;-82
2022/07/20 09:00:59;;;;;;;;;21.75;20.25;;;;;24.39;55.20;101141.00;5048581;28;45448;-86
2022/07/20 09:03:26;;;;;;;;;21.75;20.25;;;;;24.39;55.42;101128.44;5075987;28;45538;-81
2022/07/20 09:06:05;;;;;;;;;19.50;19.00;;;;;24.45;55.30;101135.75;5070817;28;45685;-87
2022/07/20 09:08:31;;;;;;;;;16.50;15.75;;;;;24.38;54.96;101126.78;5047308;28;45941;-81
2022/07/20 09:11:02;;;;;;;;;21.00;17.25;;;;;24.47;54.77;101139.03;5049546;28;46095;-84
2022/07/20 09:13:32;;;;;;;;;20.25;18.25;;;;;24.53;54.77;101134.78;5054310;28;45551;-82
2022/07/20 09:15:58;;;;;;;;;16.50;14.50;;;;;24.57;54.38;101120.81;5056222;28;46760;-80
2022/07/20 09:18:28;;;;;;;;;13.50;12.00;;;;;24.57;54.52;101117.31;5048476;28;47721;-79
2022/07/20 09:20:56;;;;;;;;;13.25;13.00;;;;;24.54;54.34;101123.06;5056303;28;45811;-77
2022/07/20 09:23:40;;;;;;;;;11.50;11.00;;;;;24.54;54.15;101115.84;5068159;28;46110;-85
2022/07/20 09:26:10;;;;;;;;;14.75;12.25;;;;;24.55;54.34;101112.16;5074795;28;46845;-83
2022/07/20 09:28:41;;;;;;;;;12.75;12.00;;;;;24.62;54.42;101123.78;5046209;28;47698;-84
2022/07/20 09:31:15;;;;;;;;;15.25;12.25;;;;;24.70;54.21;101130.06;5052553;28;46017;-82
2022/07/20 09:33:51;;;;;;;;;14.50;12.00;;;;;24.70;54.30;101125.53;5044240;28;45732;-85
2022/07/20 09:36:18;;;;;;;;;11.00;10.75;;;;;24.75;54.13;101122.28;5054574;28;46768;-79
2022/07/20 09:38:44;;;;;;;;;9.25;9.25;;;;;24.69;53.32;101115.81;5056761;28;46724;-82
2022/07/20 09:41:31;;;;;;;;;11.00;11.00;;;;;24.70;53.25;101119.34;5058554;28;45615;-84
2022/07/20 09:43:59;;;;;;;;;12.00;10.50;;;;;24.69;53.71;101129.22;5045695;28;45821;-84
2022/07/20 09:46:30;;;;;;;;;10.25;8.75;;;;;24.68;53.08;101141.78;5055715;28;45683;-84
2022/07/20 09:48:58;;;;;;;;;10.25;8.50;;;;;24.56;52.91;101129.88;5044381;28;46208;-80
2022/07/20 09:51:31;;;;;;;;;9.00;9.00;;;;;24.46;53.50;101153.44;5045719;28;45919;-81
2022/07/20 09:54:02;;;;;;;;;9.00;9.00;;;;;24.33;54.06;101160.50;5038000;28;45596;-80
2022/07/20 09:56:28;;;;;;;;;11.25;10.00;;;;;24.24;54.49;101170.44;5051642;28;45672;-79
2022/07/20 09:58:56;;;;;;;;;10.25;10.00;;;;;24.17;54.47;101169.50;5051853;28;46788;-80
2022/07/20 10:01:24;;;;;;;;;11.00;9.00;;;;;24.05;54.41;101165.63;5048668;28;45764;-82
2022/07/20 10:03:52;;;;;;;;;10.25;8.25;;;;;24.06;54.90;101164.59;5055317;28;45686;-80
2022/07/20 10:06:19;;;;;;;;;10.00;10.00;;;;;23.94;55.14;101145.47;5042469;28;45762;-82
2022/07/20 10:08:46;;;;;;;;;9.50;9.00;;;;;23.98;55.04;101156.66;5037666;28;47205;-79
2022/07/20 10:11:12;;;;;;;;;7.25;7.00;;;;;23.95;54.74;101157.84;5040338;28;45778;-79
2022/07/20 10:13:40;;;;;;;;;7.25;7.25;;;;;23.92;55.11;101149.34;5054492;28;45624;-82
2022/07/20 10:16:17;;;;;;;;;7.50;6.00;;;;;23.90;54.57;101141.50;5054516;28;46638;-81
2022/07/20 10:18:44;;;;;;;;;8.25;7.75;;;;;23.88;54.62;101143.53;5055768;28;45755;-82
2022/07/20 10:21:44;;;;;;;;;8.50;8.00;;;;;23.92;54.61;101160.88;5053281;28;45937;-80
2022/07/20 10:24:16;;;;;;;;;8.00;7.00;;;;;23.91;54.97;101161.91;5046555;28;46159;-80
2022/07/20 10:26:43;;;;;;;;;9.00;8.00;;;;;23.91;55.42;101161.91;5057021;28;45521;-82
2022/07/20 10:29:09;;;;;;;;;7.75;7.00;;;;;23.96;55.08;101164.88;5054129;28;46000;-79
2022/07/20 10:32:20;;;;;;;;;6.50;6.50;;;;;24.04;54.65;101166.63;5053998;28;45683;-80
2022/07/20 10:34:51;;;;;;;;;7.25;7.00;;;;;24.06;54.63;101154.72;4951062;28;45790;-80
2022/07/20 10:37:39;;;;;;;;;8.25;8.00;;;;;24.10;54.32;101145.31;4951504;28;46429;-81
2022/07/20 10:40:18;;;;;;;;;5.75;5.75;;;;;24.15;54.56;101148.25;4940271;28;45714;-81
2022/07/20 10:43:11;;;;;;;;;7.50;6.50;;;;;24.21;54.68;101158.28;4949120;28;45746;-80
2022/07/20 10:45:37;;;;;;;;;6.75;6.25;;;;;24.19;54.37;101149.59;4943098;28;45895;-81
2022/07/20 10:48:11;;;;;;;;;8.25;6.00;;;;;24.28;54.20;101168.25;4940031;28;45688;-81
2022/07/20 10:50:37;;;;;;;;;7.25;7.25;;;;;24.27;54.55;101167.41;4955108;28;45967;-78
2022/07/20 10:53:15;;;;;;;;;7.25;6.50;;;;;24.31;54.03;101165.19;4937689;28;47282;-81
2022/07/20 10:56:03;;;;;;;;;8.00;7.00;;;;;24.31;54.21;101159.84;4957383;28;45755;-74
2022/07/20 10:58:32;;;;;;;;;7.75;6.00;;;;;24.30;54.43;101164.34;4955040;28;45924;-77
2022/07/20 11:01:08;;;;;;;;;7.00;5.75;;;;;24.32;54.83;101177.56;4955664;28;46349;-74
2022/07/20 11:03:42;;;;;;;;;11.50;8.50;;;;;24.31;54.07;101182.09;4966230;28;46075;-76
2022/07/20 11:06:19;;;;;;;;;9.25;7.00;;;;;24.31;54.91;101175.91;4944864;28;45874;-76
2022/07/20 11:08:56;;;;;;;;;7.50;7.00;;;;;24.36;54.82;101184.22;4958017;28;45761;-76
2022/07/20 11:11:30;;;;;;;;;7.75;7.00;;;;;24.40;54.63;101172.16;5005891;28;46915;-78
2022/07/20 11:13:56;;;;;;;;;10.25;9.25;;;;;24.44;54.20;101176.09;5059003;28;46056;-77